M.s. Sonoma — WZC8517 — position and weather

sailwx.info

Track history (hours):
 
Tides and Currents Weather Stations Pressure Air Temp Water Temp Dewpoint Dewpoint Depression Visibility Wind Speed Wind Dir Waves Ship Positions

M.s. Sonoma

Owner: GOLDEN GATE BRIDGE HWY & TRANSP DIST, LARKSPUR, CA. More information available from US FCC via Universal Licensing System and Coast Guard Vessel Documentation Center.

Last reported at 2017-Oct-22 19:00 UTC. Time now 2017-Oct-22 19:16 UTC.
Position N 37°48' W 122°24'.

Length 56 m.

Type: Passenger vessel. MMSI: 366969970.

Date/timePositionNaut miles runAvg speedWind from/ knotsBaromVisibWave heightAir tempDewpointWater temp
2017-Oct-22 19:00N 37°48' W 122°24'4 7.5
2017-Oct-22 18:30N 37°51' W 122°27'0 0.9
2017-Oct-22 18:00N 37°51' W 122°27'4 8.4
2017-Oct-22 17:30N 37°48' W 122°24'611.3
2017-Oct-22 17:01N 37°53' W 122°26'510.3
2017-Oct-22 16:30N 37°57' W 122°31'0 0.0
2017-Oct-22 03:25N 37°56' W 122°30'512.3
2017-Oct-22 03:00N 37°53' W 122°25'510.9
2017-Oct-22 02:30N 37°48' W 122°24'510.7
2017-Oct-22 02:00N 37°51' W 122°29'0 0.4
2017-Oct-22 01:30N 37°51' W 122°28'510.4
2017-Oct-22 01:00N 37°48' W 122°24'0 0.0
2017-Oct-22 00:30N 37°48' W 122°24'0 0.1
2017-Oct-22 00:00N 37°48' W 122°24'3 5.5
2017-Oct-21 23:30N 37°50' W 122°26'3 5.4
2017-Oct-21 23:00N 37°51' W 122°29'3 5.4
2017-Oct-21 22:30N 37°51' W 122°25'3 6.4
2017-Oct-21 22:00N 37°48' W 122°24'510.8
2017-Oct-21 21:30N 37°51' W 122°29'2 4.4
2017-Oct-21 21:00N 37°53' W 122°26'5 0.3
2017-Oct-21 04:09N 37°57' W 122°31'0 3.0
2017-Oct-21 04:00N 37°56' W 122°30'816.3
2017-Oct-21 03:31N 37°50' W 122°24'2 4.6
2017-Oct-21 03:00N 37°48' W 122°24'5 9.2
2017-Oct-21 02:30N 37°51' W 122°28'2 4.7
2017-Oct-21 02:01N 37°50' W 122°25'2 3.6
2017-Oct-21 01:31N 37°49' W 122°24'5 9.6
2017-Oct-21 01:00N 37°51' W 122°29'510.9
2017-Oct-21 00:30N 37°48' W 122°24'2 3.9
2017-Oct-21 00:00N 37°50' W 122°24'4 7.7
2017-Oct-20 23:31N 37°51' W 122°29'510.7
2017-Oct-20 23:00N 37°48' W 122°24'4 7.5
2017-Oct-20 22:30N 37°50' W 122°27'2 3.3
2017-Oct-20 22:00N 37°51' W 122°28'510.6
2017-Oct-20 21:30N 37°48' W 122°24'5 9.3
2017-Oct-20 21:01N 37°51' W 122°28'1 1.6
2017-Oct-20 20:30N 37°51' W 122°29'510.9
2017-Oct-20 20:01N 37°48' W 122°23'3 6.2
2017-Oct-20 19:31N 37°50' W 122°26'2 4.7
2017-Oct-20 19:00N 37°51' W 122°28'510.8
2017-Oct-20 18:30N 37°48' W 122°24'510.0
2017-Oct-20 18:01N 37°51' W 122°28'1 1.3
2017-Oct-20 17:31N 37°51' W 122°29'510.8
2017-Oct-20 17:00N 37°48' W 122°24'0 0.0
2017-Oct-20 16:30N 37°48' W 122°24'0 0.0
2017-Oct-20 16:00N 37°48' W 122°24'3 6.5
2017-Oct-20 15:31N 37°50' W 122°26'1 2.3
2017-Oct-20 15:01N 37°51' W 122°27'4 8.2
2017-Oct-20 14:31N 37°48' W 122°23'10 9.8
2017-Oct-20 13:30N 37°57' W 122°30'0 0.0
2017-Oct-20 02:59N 37°57' W 122°31'0 0.0
2017-Oct-20 02:30N 37°57' W 122°31'0 0.0
2017-Oct-20 02:00N 37°57' W 122°31'0 0.0
2017-Oct-20 01:30N 37°57' W 122°31'0 0.0
2017-Oct-20 01:00N 37°57' W 122°31'0 0.0
2017-Oct-20 00:30N 37°57' W 122°31'0 0.0
2017-Oct-20 00:00N 37°57' W 122°31'0 0.0
2017-Oct-19 23:30N 37°57' W 122°31'0 0.0
2017-Oct-19 23:00N 37°57' W 122°31'0 0.0
2017-Oct-19 22:30N 37°57' W 122°31'0 0.0
2017-Oct-19 22:00N 37°57' W 122°31'0 0.0
2017-Oct-19 21:30N 37°57' W 122°31'3 6.1
2017-Oct-19 21:00N 37°55' W 122°27'4 7.7
2017-Oct-19 20:30N 37°51' W 122°29'510.8
2017-Oct-19 20:00N 37°48' W 122°23'3 5.1
2017-Oct-19 19:31N 37°50' W 122°25'2 4.4
2017-Oct-19 19:00N 37°51' W 122°28'5 9.5
2017-Oct-19 18:30N 37°48' W 122°24'5 9.8
2017-Oct-19 18:00N 37°51' W 122°28'1 1.3
2017-Oct-19 17:30N 37°51' W 122°29'510.9
2017-Oct-19 17:01N 37°48' W 122°24'0 0.2
2017-Oct-19 16:30N 37°48' W 122°24'0 0.0
2017-Oct-19 16:00N 37°48' W 122°24'3 6.6
2017-Oct-19 15:30N 37°50' W 122°26'1 1.4
2017-Oct-19 15:01N 37°51' W 122°27'4 7.3
2017-Oct-19 14:31N 37°48' W 122°23'5 9.2
2017-Oct-19 14:01N 37°51' W 122°28'611.3
2017-Oct-19 13:30N 37°57' W 122°31'0 0.0
2017-Oct-19 04:27N 37°57' W 122°31'3 6.0
2017-Oct-19 04:00N 37°56' W 122°27'4 8.5
2017-Oct-19 03:30N 37°51' W 122°29'510.8
2017-Oct-19 03:00N 37°48' W 122°24'510.6
2017-Oct-19 02:31N 37°51' W 122°28'4 7.8
2017-Oct-19 02:01N 37°50' W 122°24'1 1.8
2017-Oct-19 01:31N 37°49' W 122°24'4 8.4
2017-Oct-19 01:01N 37°51' W 122°29'510.7
2017-Oct-19 00:30N 37°48' W 122°24'2 4.7
2017-Oct-19 00:00N 37°50' W 122°25'3 6.6
2017-Oct-18 23:30N 37°51' W 122°29'510.8
2017-Oct-18 23:00N 37°48' W 122°24'3 6.8
2017-Oct-18 22:30N 37°50' W 122°26'2 4.1
2017-Oct-18 22:00N 37°51' W 122°29'510.7
2017-Oct-18 21:30N 37°48' W 122°24'5 9.8
2017-Oct-18 21:00N 37°51' W 122°28'1 1.0
2017-Oct-18 20:31N 37°51' W 122°29'510.8
2017-Oct-18 20:00N 37°48' W 122°23'2 3.5
2017-Oct-18 19:31N 37°50' W 122°24'4 7.8
2017-Oct-18 19:01N 37°51' W 122°29'510.7
2017-Oct-18 18:30N 37°48' W 122°24'5 9.7
2017-Oct-18 18:01N 37°51' W 122°28'1 1.2
2017-Oct-18 17:30N 37°51' W 122°29'510.9
2017-Oct-18 17:00N 37°48' W 122°24'0 0.0
2017-Oct-18 16:31N 37°48' W 122°24'0 0.0
2017-Oct-18 16:00N 37°48' W 122°24'3 6.3
2017-Oct-18 15:31N 37°50' W 122°26'1 1.8
2017-Oct-18 15:00N 37°51' W 122°27'2 1.7
2017-Oct-18 14:00N 37°51' W 122°29'510.2
2017-Oct-18 13:30N 37°56' W 122°30'1 0.1
2017-Oct-18 04:18N 37°57' W 122°31'3 9.0
2017-Oct-18 04:01N 37°55' W 122°28'4 8.4
2017-Oct-18 03:31N 37°51' W 122°29'510.6
2017-Oct-18 03:00N 37°48' W 122°24'510.9
2017-Oct-18 02:30N 37°51' W 122°29'510.8
2017-Oct-18 02:00N 37°48' W 122°24'510.5
2017-Oct-18 01:31N 37°51' W 122°28'3 5.0
2017-Oct-18 01:00N 37°50' W 122°25'3 6.1
2017-Oct-18 00:30N 37°48' W 122°24'2 4.3
2017-Oct-18 00:01N 37°50' W 122°24'4 7.3
2017-Oct-17 23:31N 37°51' W 122°29'510.6
2017-Oct-17 23:00N 37°48' W 122°24'4 7.2
2017-Oct-17 22:31N 37°50' W 122°27'0 0.8
2017-Oct-17 22:00N 37°51' W 122°27'4 7.9
2017-Oct-17 21:30N 37°48' W 122°24'510.7
2017-Oct-17 21:00N 37°51' W 122°29'0 0.0
2017-Oct-17 20:30N 37°51' W 122°29'510.1
2017-Oct-17 20:01N 37°49' W 122°23'2 3.3
2017-Oct-17 19:31N 37°50' W 122°25'3 6.8
2017-Oct-17 19:01N 37°51' W 122°29'510.6
2017-Oct-17 18:30N 37°48' W 122°24'5 9.6
2017-Oct-17 18:00N 37°51' W 122°28'1 1.4
2017-Oct-17 17:31N 37°51' W 122°29'510.8
2017-Oct-17 17:00N 37°48' W 122°24'0 0.0
2017-Oct-17 16:30N 37°48' W 122°24'0 0.0
2017-Oct-17 16:00N 37°48' W 122°24'3 6.2
2017-Oct-17 15:31N 37°50' W 122°26'1 2.7
2017-Oct-17 15:00N 37°51' W 122°27'4 8.5
2017-Oct-17 14:30N 37°48' W 122°23'510.5
2017-Oct-17 14:00N 37°51' W 122°29'510.3
2017-Oct-17 13:30N 37°56' W 122°30'1 0.1
2017-Oct-17 04:51N 37°57' W 122°31'0 0.2
2017-Oct-17 04:30N 37°57' W 122°31'1 2.1
2017-Oct-17 04:00N 37°56' W 122°29'5 9.7
2017-Oct-17 03:31N 37°51' W 122°29'510.9
2017-Oct-17 03:01N 37°48' W 122°23'4 8.6
2017-Oct-17 02:31N 37°51' W 122°27'2 4.7
2017-Oct-17 02:01N 37°50' W 122°24'2 3.6
2017-Oct-17 01:30N 37°49' W 122°23'510.0
2017-Oct-17 01:00N 37°51' W 122°29'511.0
2017-Oct-17 00:30N 37°48' W 122°24'2 4.2
2017-Oct-17 00:00N 37°50' W 122°25'3 7.0
2017-Oct-16 23:30N 37°51' W 122°29'510.9
2017-Oct-16 23:01N 37°48' W 122°24'4 7.4
2017-Oct-16 22:31N 37°50' W 122°27'2 3.5
2017-Oct-16 22:00N 37°51' W 122°29'511.0
2017-Oct-16 21:30N 37°48' W 122°24'510.3
2017-Oct-16 21:01N 37°51' W 122°28'0 0.6
2017-Oct-16 20:30N 37°51' W 122°29'510.6
2017-Oct-16 20:00N 37°48' W 122°24'2 4.0
2017-Oct-16 19:30N 37°50' W 122°25'4 7.0
2017-Oct-16 19:00N 37°51' W 122°29'510.8
2017-Oct-16 18:30N 37°48' W 122°24'510.2
2017-Oct-16 18:01N 37°51' W 122°28'0 0.9
2017-Oct-16 17:30N 37°51' W 122°29'510.9
2017-Oct-16 17:00N 37°48' W 122°24'0 0.0
2017-Oct-16 16:30N 37°48' W 122°24'0 0.0
2017-Oct-16 16:01N 37°48' W 122°24'3 6.3
2017-Oct-16 15:31N 37°50' W 122°26'1 2.4
2017-Oct-16 15:00N 37°51' W 122°27'4 8.4
2017-Oct-16 14:31N 37°48' W 122°23'1010.2
2017-Oct-16 13:30N 37°57' W 122°31'0 0.0
2017-Oct-16 02:41N 37°57' W 122°31'0 0.3
2017-Oct-16 02:30N 37°57' W 122°30'2 3.7
2017-Oct-16 02:00N 37°56' W 122°28'917.7
2017-Oct-16 01:31N 37°48' W 122°23'0 0.4
2017-Oct-16 01:01N 37°48' W 122°23'510.5
2017-Oct-16 00:30N 37°51' W 122°29'1 2.4
2017-Oct-16 00:00N 37°51' W 122°27'4 8.6
2017-Oct-15 23:30N 37°48' W 122°24'3 6.9
2017-Oct-15 23:00N 37°50' W 122°27'2 4.0
2017-Oct-15 22:30N 37°51' W 122°29'4 8.2
2017-Oct-15 22:00N 37°50' W 122°24'1 1.7
2017-Oct-15 21:31N 37°49' W 122°24'5 9.4
2017-Oct-15 21:00N 37°51' W 122°29'510.9
2017-Oct-15 20:30N 37°48' W 122°24'2 4.4
2017-Oct-15 20:00N 37°50' W 122°25'3 6.7
2017-Oct-15 19:30N 37°51' W 122°29'510.9
2017-Oct-15 19:00N 37°48' W 122°24'4 8.2
2017-Oct-15 18:30N 37°51' W 122°27'0 0.9
2017-Oct-15 18:01N 37°51' W 122°27'4 8.4
2017-Oct-15 17:30N 37°48' W 122°24'612.1
2017-Oct-15 17:00N 37°53' W 122°26'5 8.6
2017-Oct-15 16:27N 37°57' W 122°31'0 0.0
2017-Oct-15 02:18N 37°57' W 122°31'2 6.8
2017-Oct-15 02:00N 37°56' W 122°28'917.6
2017-Oct-15 01:30N 37°48' W 122°24'0 0.7
2017-Oct-15 01:01N 37°48' W 122°23'510.9
2017-Oct-15 00:30N 37°51' W 122°29'1 2.3
2017-Oct-15 00:01N 37°51' W 122°27'5 9.0
2017-Oct-14 23:30N 37°48' W 122°24'3 6.9
2017-Oct-14 23:00N 37°50' W 122°26'2 4.1
2017-Oct-14 22:31N 37°51' W 122°29'4 8.6
2017-Oct-14 22:01N 37°49' W 122°24'1 1.6
2017-Oct-14 21:30N 37°49' W 122°23'510.0
2017-Oct-14 21:00N 37°51' W 122°29'510.8
2017-Oct-14 20:30N 37°48' W 122°23'2 4.7
2017-Oct-14 20:00N 37°50' W 122°25'3 6.6
2017-Oct-14 19:30N 37°51' W 122°29'510.9
2017-Oct-14 19:00N 37°48' W 122°24'3 6.8
2017-Oct-14 18:31N 37°50' W 122°26'1 2.6
2017-Oct-14 18:01N 37°51' W 122°28'5 9.3
2017-Oct-14 17:30N 37°48' W 122°24'510.7
2017-Oct-14 17:00N 37°53' W 122°26'511.0
2017-Oct-14 16:30N 37°57' W 122°31'0 0.0
2017-Oct-14 16:00N 37°57' W 122°31'0 0.0
2017-Oct-14 04:34N 37°57' W 122°31'0 0.0
2017-Oct-14 04:30N 37°57' W 122°31'1 2.5
2017-Oct-14 04:00N 37°56' W 122°29'5 9.9
2017-Oct-14 03:30N 37°51' W 122°28'5 9.9
2017-Oct-14 03:00N 37°48' W 122°23'4 7.8
2017-Oct-14 02:30N 37°51' W 122°27'2 3.8
2017-Oct-14 02:00N 37°50' W 122°25'2 3.5
2017-Oct-14 01:30N 37°49' W 122°23'5 9.8
2017-Oct-14 01:01N 37°51' W 122°29'510.8
2017-Oct-14 00:30N 37°48' W 122°24'2 4.5
2017-Oct-14 00:01N 37°50' W 122°25'4 7.0
2017-Oct-13 23:30N 37°51' W 122°29'510.8
2017-Oct-13 23:00N 37°48' W 122°24'3 6.5
2017-Oct-13 22:30N 37°50' W 122°26'2 4.6
2017-Oct-13 22:00N 37°51' W 122°29'510.7
2017-Oct-13 21:30N 37°48' W 122°24'5 9.5
2017-Oct-13 21:00N 37°51' W 122°28'1 1.4
2017-Oct-13 20:31N 37°51' W 122°29'510.8
2017-Oct-13 20:00N 37°48' W 122°23'2 3.9
2017-Oct-13 19:31N 37°50' W 122°25'4 7.4
2017-Oct-13 19:01N 37°51' W 122°29'510.8
2017-Oct-13 18:30N 37°48' W 122°24'510.3
2017-Oct-13 18:00N 37°51' W 122°28'0 0.6
2017-Oct-13 17:30N 37°51' W 122°29'510.9
2017-Oct-13 17:00N 37°48' W 122°24'0 0.0
2017-Oct-13 16:30N 37°48' W 122°24'0 0.0
2017-Oct-13 16:00N 37°48' W 122°24'4 7.1
2017-Oct-13 15:30N 37°50' W 122°26'1 1.3
2017-Oct-13 15:00N 37°51' W 122°27'4 7.5
2017-Oct-13 14:31N 37°49' W 122°23'510.1
2017-Oct-13 14:01N 37°51' W 122°29'510.5
2017-Oct-13 13:30N 37°56' W 122°30'  
Track history (hours):
 
Tides and Currents Weather Stations Pressure Air Temp Water Temp Dewpoint Dewpoint Depression Visibility Wind Speed Wind Dir Waves Ship Positions

M.s. Sonoma

Owner: GOLDEN GATE BRIDGE HWY & TRANSP DIST, LARKSPUR, CA. More information available from US FCC via Universal Licensing System and Coast Guard Vessel Documentation Center.

Last reported at 2017-Oct-22 19:00 UTC. Time now 2017-Oct-22 19:16 UTC.
Position N 37°48' W 122°24'.

Length 56 m.

Type: Passenger vessel. MMSI: 366969970.

Date/timePositionNaut miles runAvg speedWind from/ knotsBaromVisibWave heightAir tempDewpointWater temp
2017-Oct-22 19:00N 37°48' W 122°24'4 7.5
2017-Oct-22 18:30N 37°51' W 122°27'0 0.9
2017-Oct-22 18:00N 37°51' W 122°27'4 8.4
2017-Oct-22 17:30N 37°48' W 122°24'611.3
2017-Oct-22 17:01N 37°53' W 122°26'510.3
2017-Oct-22 16:30N 37°57' W 122°31'0 0.0
2017-Oct-22 03:25N 37°56' W 122°30'512.3
2017-Oct-22 03:00N 37°53' W 122°25'510.9
2017-Oct-22 02:30N 37°48' W 122°24'510.7
2017-Oct-22 02:00N 37°51' W 122°29'0 0.4
2017-Oct-22 01:30N 37°51' W 122°28'510.4
2017-Oct-22 01:00N 37°48' W 122°24'0 0.0
2017-Oct-22 00:30N 37°48' W 122°24'0 0.1
2017-Oct-22 00:00N 37°48' W 122°24'3 5.5
2017-Oct-21 23:30N 37°50' W 122°26'3 5.4
2017-Oct-21 23:00N 37°51' W 122°29'3 5.4
2017-Oct-21 22:30N 37°51' W 122°25'3 6.4
2017-Oct-21 22:00N 37°48' W 122°24'510.8
2017-Oct-21 21:30N 37°51' W 122°29'2 4.4
2017-Oct-21 21:00N 37°53' W 122°26'5 0.3
2017-Oct-21 04:09N 37°57' W 122°31'0 3.0
2017-Oct-21 04:00N 37°56' W 122°30'816.3
2017-Oct-21 03:31N 37°50' W 122°24'2 4.6
2017-Oct-21 03:00N 37°48' W 122°24'5 9.2
2017-Oct-21 02:30N 37°51' W 122°28'2 4.7
2017-Oct-21 02:01N 37°50' W 122°25'2 3.6
2017-Oct-21 01:31N 37°49' W 122°24'5 9.6
2017-Oct-21 01:00N 37°51' W 122°29'510.9
2017-Oct-21 00:30N 37°48' W 122°24'2 3.9
2017-Oct-21 00:00N 37°50' W 122°24'4 7.7
2017-Oct-20 23:31N 37°51' W 122°29'510.7
2017-Oct-20 23:00N 37°48' W 122°24'4 7.5
2017-Oct-20 22:30N 37°50' W 122°27'2 3.3
2017-Oct-20 22:00N 37°51' W 122°28'510.6
2017-Oct-20 21:30N 37°48' W 122°24'5 9.3
2017-Oct-20 21:01N 37°51' W 122°28'1 1.6
2017-Oct-20 20:30N 37°51' W 122°29'510.9
2017-Oct-20 20:01N 37°48' W 122°23'3 6.2
2017-Oct-20 19:31N 37°50' W 122°26'2 4.7
2017-Oct-20 19:00N 37°51' W 122°28'510.8
2017-Oct-20 18:30N 37°48' W 122°24'510.0
2017-Oct-20 18:01N 37°51' W 122°28'1 1.3
2017-Oct-20 17:31N 37°51' W 122°29'510.8
2017-Oct-20 17:00N 37°48' W 122°24'0 0.0
2017-Oct-20 16:30N 37°48' W 122°24'0 0.0
2017-Oct-20 16:00N 37°48' W 122°24'3 6.5
2017-Oct-20 15:31N 37°50' W 122°26'1 2.3
2017-Oct-20 15:01N 37°51' W 122°27'4 8.2
2017-Oct-20 14:31N 37°48' W 122°23'10 9.8
2017-Oct-20 13:30N 37°57' W 122°30'0 0.0
2017-Oct-20 02:59N 37°57' W 122°31'0 0.0
2017-Oct-20 02:30N 37°57' W 122°31'0 0.0
2017-Oct-20 02:00N 37°57' W 122°31'0 0.0
2017-Oct-20 01:30N 37°57' W 122°31'0 0.0
2017-Oct-20 01:00N 37°57' W 122°31'0 0.0
2017-Oct-20 00:30N 37°57' W 122°31'0 0.0
2017-Oct-20 00:00N 37°57' W 122°31'0 0.0
2017-Oct-19 23:30N 37°57' W 122°31'0 0.0
2017-Oct-19 23:00N 37°57' W 122°31'0 0.0
2017-Oct-19 22:30N 37°57' W 122°31'0 0.0
2017-Oct-19 22:00N 37°57' W 122°31'0 0.0
2017-Oct-19 21:30N 37°57' W 122°31'3 6.1
2017-Oct-19 21:00N 37°55' W 122°27'4 7.7
2017-Oct-19 20:30N 37°51' W 122°29'510.8
2017-Oct-19 20:00N 37°48' W 122°23'3 5.1
2017-Oct-19 19:31N 37°50' W 122°25'2 4.4
2017-Oct-19 19:00N 37°51' W 122°28'5 9.5
2017-Oct-19 18:30N 37°48' W 122°24'5 9.8
2017-Oct-19 18:00N 37°51' W 122°28'1 1.3
2017-Oct-19 17:30N 37°51' W 122°29'510.9
2017-Oct-19 17:01N 37°48' W 122°24'0 0.2
2017-Oct-19 16:30N 37°48' W 122°24'0 0.0
2017-Oct-19 16:00N 37°48' W 122°24'3 6.6
2017-Oct-19 15:30N 37°50' W 122°26'1 1.4
2017-Oct-19 15:01N 37°51' W 122°27'4 7.3
2017-Oct-19 14:31N 37°48' W 122°23'5 9.2
2017-Oct-19 14:01N 37°51' W 122°28'611.3
2017-Oct-19 13:30N 37°57' W 122°31'0 0.0
2017-Oct-19 04:27N 37°57' W 122°31'3 6.0
2017-Oct-19 04:00N 37°56' W 122°27'4 8.5
2017-Oct-19 03:30N 37°51' W 122°29'510.8
2017-Oct-19 03:00N 37°48' W 122°24'510.6
2017-Oct-19 02:31N 37°51' W 122°28'4 7.8
2017-Oct-19 02:01N 37°50' W 122°24'1 1.8
2017-Oct-19 01:31N 37°49' W 122°24'4 8.4
2017-Oct-19 01:01N 37°51' W 122°29'510.7
2017-Oct-19 00:30N 37°48' W 122°24'2 4.7
2017-Oct-19 00:00N 37°50' W 122°25'3 6.6
2017-Oct-18 23:30N 37°51' W 122°29'510.8
2017-Oct-18 23:00N 37°48' W 122°24'3 6.8
2017-Oct-18 22:30N 37°50' W 122°26'2 4.1
2017-Oct-18 22:00N 37°51' W 122°29'510.7
2017-Oct-18 21:30N 37°48' W 122°24'5 9.8
2017-Oct-18 21:00N 37°51' W 122°28'1 1.0
2017-Oct-18 20:31N 37°51' W 122°29'510.8
2017-Oct-18 20:00N 37°48' W 122°23'2 3.5
2017-Oct-18 19:31N 37°50' W 122°24'4 7.8
2017-Oct-18 19:01N 37°51' W 122°29'510.7
2017-Oct-18 18:30N 37°48' W 122°24'5 9.7
2017-Oct-18 18:01N 37°51' W 122°28'1 1.2
2017-Oct-18 17:30N 37°51' W 122°29'510.9
2017-Oct-18 17:00N 37°48' W 122°24'0 0.0
2017-Oct-18 16:31N 37°48' W 122°24'0 0.0
2017-Oct-18 16:00N 37°48' W 122°24'3 6.3
2017-Oct-18 15:31N 37°50' W 122°26'1 1.8
2017-Oct-18 15:00N 37°51' W 122°27'2 1.7
2017-Oct-18 14:00N 37°51' W 122°29'510.2
2017-Oct-18 13:30N 37°56' W 122°30'1 0.1
2017-Oct-18 04:18N 37°57' W 122°31'3 9.0
2017-Oct-18 04:01N 37°55' W 122°28'4 8.4
2017-Oct-18 03:31N 37°51' W 122°29'510.6
2017-Oct-18 03:00N 37°48' W 122°24'510.9
2017-Oct-18 02:30N 37°51' W 122°29'510.8
2017-Oct-18 02:00N 37°48' W 122°24'510.5
2017-Oct-18 01:31N 37°51' W 122°28'3 5.0
2017-Oct-18 01:00N 37°50' W 122°25'3 6.1
2017-Oct-18 00:30N 37°48' W 122°24'2 4.3
2017-Oct-18 00:01N 37°50' W 122°24'4 7.3
2017-Oct-17 23:31N 37°51' W 122°29'510.6
2017-Oct-17 23:00N 37°48' W 122°24'4 7.2
2017-Oct-17 22:31N 37°50' W 122°27'0 0.8
2017-Oct-17 22:00N 37°51' W 122°27'4 7.9
2017-Oct-17 21:30N 37°48' W 122°24'510.7
2017-Oct-17 21:00N 37°51' W 122°29'0 0.0
2017-Oct-17 20:30N 37°51' W 122°29'510.1
2017-Oct-17 20:01N 37°49' W 122°23'2 3.3
2017-Oct-17 19:31N 37°50' W 122°25'3 6.8
2017-Oct-17 19:01N 37°51' W 122°29'510.6
2017-Oct-17 18:30N 37°48' W 122°24'5 9.6
2017-Oct-17 18:00N 37°51' W 122°28'1 1.4
2017-Oct-17 17:31N 37°51' W 122°29'510.8
2017-Oct-17 17:00N 37°48' W 122°24'0 0.0
2017-Oct-17 16:30N 37°48' W 122°24'0 0.0
2017-Oct-17 16:00N 37°48' W 122°24'3 6.2
2017-Oct-17 15:31N 37°50' W 122°26'1 2.7
2017-Oct-17 15:00N 37°51' W 122°27'4 8.5
2017-Oct-17 14:30N 37°48' W 122°23'510.5
2017-Oct-17 14:00N 37°51' W 122°29'510.3
2017-Oct-17 13:30N 37°56' W 122°30'1 0.1
2017-Oct-17 04:51N 37°57' W 122°31'0 0.2
2017-Oct-17 04:30N 37°57' W 122°31'1 2.1
2017-Oct-17 04:00N 37°56' W 122°29'5 9.7
2017-Oct-17 03:31N 37°51' W 122°29'510.9
2017-Oct-17 03:01N 37°48' W 122°23'4 8.6
2017-Oct-17 02:31N 37°51' W 122°27'2 4.7
2017-Oct-17 02:01N 37°50' W 122°24'2 3.6
2017-Oct-17 01:30N 37°49' W 122°23'510.0
2017-Oct-17 01:00N 37°51' W 122°29'511.0
2017-Oct-17 00:30N 37°48' W 122°24'2 4.2
2017-Oct-17 00:00N 37°50' W 122°25'3 7.0
2017-Oct-16 23:30N 37°51' W 122°29'510.9
2017-Oct-16 23:01N 37°48' W 122°24'4 7.4
2017-Oct-16 22:31N 37°50' W 122°27'2 3.5
2017-Oct-16 22:00N 37°51' W 122°29'511.0
2017-Oct-16 21:30N 37°48' W 122°24'510.3
2017-Oct-16 21:01N 37°51' W 122°28'0 0.6
2017-Oct-16 20:30N 37°51' W 122°29'510.6
2017-Oct-16 20:00N 37°48' W 122°24'2 4.0
2017-Oct-16 19:30N 37°50' W 122°25'4 7.0
2017-Oct-16 19:00N 37°51' W 122°29'510.8
2017-Oct-16 18:30N 37°48' W 122°24'510.2
2017-Oct-16 18:01N 37°51' W 122°28'0 0.9
2017-Oct-16 17:30N 37°51' W 122°29'510.9
2017-Oct-16 17:00N 37°48' W 122°24'0 0.0
2017-Oct-16 16:30N 37°48' W 122°24'0 0.0
2017-Oct-16 16:01N 37°48' W 122°24'3 6.3
2017-Oct-16 15:31N 37°50' W 122°26'1 2.4
2017-Oct-16 15:00N 37°51' W 122°27'4 8.4
2017-Oct-16 14:31N 37°48' W 122°23'1010.2
2017-Oct-16 13:30N 37°57' W 122°31'0 0.0
2017-Oct-16 02:41N 37°57' W 122°31'0 0.3
2017-Oct-16 02:30N 37°57' W 122°30'2 3.7
2017-Oct-16 02:00N 37°56' W 122°28'917.7
2017-Oct-16 01:31N 37°48' W 122°23'0 0.4
2017-Oct-16 01:01N 37°48' W 122°23'510.5
2017-Oct-16 00:30N 37°51' W 122°29'1 2.4
2017-Oct-16 00:00N 37°51' W 122°27'4 8.6
2017-Oct-15 23:30N 37°48' W 122°24'3 6.9
2017-Oct-15 23:00N 37°50' W 122°27'2 4.0
2017-Oct-15 22:30N 37°51' W 122°29'4 8.2
2017-Oct-15 22:00N 37°50' W 122°24'1 1.7
2017-Oct-15 21:31N 37°49' W 122°24'5 9.4
2017-Oct-15 21:00N 37°51' W 122°29'510.9
2017-Oct-15 20:30N 37°48' W 122°24'2 4.4
2017-Oct-15 20:00N 37°50' W 122°25'3 6.7
2017-Oct-15 19:30N 37°51' W 122°29'510.9
2017-Oct-15 19:00N 37°48' W 122°24'4 8.2
2017-Oct-15 18:30N 37°51' W 122°27'0 0.9
2017-Oct-15 18:01N 37°51' W 122°27'4 8.4
2017-Oct-15 17:30N 37°48' W 122°24'612.1
2017-Oct-15 17:00N 37°53' W 122°26'5 8.6
2017-Oct-15 16:27N 37°57' W 122°31'0 0.0
2017-Oct-15 02:18N 37°57' W 122°31'2 6.8
2017-Oct-15 02:00N 37°56' W 122°28'917.6
2017-Oct-15 01:30N 37°48' W 122°24'0 0.7
2017-Oct-15 01:01N 37°48' W 122°23'510.9
2017-Oct-15 00:30N 37°51' W 122°29'1 2.3
2017-Oct-15 00:01N 37°51' W 122°27'5 9.0
2017-Oct-14 23:30N 37°48' W 122°24'3 6.9
2017-Oct-14 23:00N 37°50' W 122°26'2 4.1
2017-Oct-14 22:31N 37°51' W 122°29'4 8.6
2017-Oct-14 22:01N 37°49' W 122°24'1 1.6
2017-Oct-14 21:30N 37°49' W 122°23'510.0
2017-Oct-14 21:00N 37°51' W 122°29'510.8
2017-Oct-14 20:30N 37°48' W 122°23'2 4.7
2017-Oct-14 20:00N 37°50' W 122°25'3 6.6
2017-Oct-14 19:30N 37°51' W 122°29'510.9
2017-Oct-14 19:00N 37°48' W 122°24'3 6.8
2017-Oct-14 18:31N 37°50' W 122°26'1 2.6
2017-Oct-14 18:01N 37°51' W 122°28'5 9.3
2017-Oct-14 17:30N 37°48' W 122°24'510.7
2017-Oct-14 17:00N 37°53' W 122°26'511.0
2017-Oct-14 16:30N 37°57' W 122°31'0 0.0
2017-Oct-14 16:00N 37°57' W 122°31'0 0.0
2017-Oct-14 04:34N 37°57' W 122°31'0 0.0
2017-Oct-14 04:30N 37°57' W 122°31'1 2.5
2017-Oct-14 04:00N 37°56' W 122°29'5 9.9
2017-Oct-14 03:30N 37°51' W 122°28'5 9.9
2017-Oct-14 03:00N 37°48' W 122°23'4 7.8
2017-Oct-14 02:30N 37°51' W 122°27'2 3.8
2017-Oct-14 02:00N 37°50' W 122°25'2 3.5
2017-Oct-14 01:30N 37°49' W 122°23'5 9.8
2017-Oct-14 01:01N 37°51' W 122°29'510.8
2017-Oct-14 00:30N 37°48' W 122°24'2 4.5
2017-Oct-14 00:01N 37°50' W 122°25'4 7.0
2017-Oct-13 23:30N 37°51' W 122°29'510.8
2017-Oct-13 23:00N 37°48' W 122°24'3 6.5
2017-Oct-13 22:30N 37°50' W 122°26'2 4.6
2017-Oct-13 22:00N 37°51' W 122°29'510.7
2017-Oct-13 21:30N 37°48' W 122°24'5 9.5
2017-Oct-13 21:00N 37°51' W 122°28'1 1.4
2017-Oct-13 20:31N 37°51' W 122°29'510.8
2017-Oct-13 20:00N 37°48' W 122°23'2 3.9
2017-Oct-13 19:31N 37°50' W 122°25'4 7.4
2017-Oct-13 19:01N 37°51' W 122°29'510.8
2017-Oct-13 18:30N 37°48' W 122°24'510.3
2017-Oct-13 18:00N 37°51' W 122°28'0 0.6
2017-Oct-13 17:30N 37°51' W 122°29'510.9
2017-Oct-13 17:00N 37°48' W 122°24'0 0.0
2017-Oct-13 16:30N 37°48' W 122°24'0 0.0
2017-Oct-13 16:00N 37°48' W 122°24'4 7.1
2017-Oct-13 15:30N 37°50' W 122°26'1 1.3
2017-Oct-13 15:00N 37°51' W 122°27'4 7.5
2017-Oct-13 14:31N 37°49' W 122°23'510.1
2017-Oct-13 14:01N 37°51' W 122°29'510.5
2017-Oct-13 13:30N 37°56' W 122°30'  

Dump ship's entire track history